Aérodrome :
LOGIN :

S'inscrire | Disclaimer

   EN    FR    IT 

 










Légende :    VFR   VFR Marginal   IFR   IFR Intensif   IFR Très Intensif
Visi : 
Plafond : 
>= 8 km
>= 3000ft
5 à 8 km
1000 à 3000 ft
1500m à 5 km
500 à 1000 ft
800 à 1500m
200 à 500 ft
< 800m
< 200 ft
Symboles :   Orages  Brouillard  Fortes neiges  Fortes précipitations  Vent > 20 kt
SIGMETs :   Divers  Orages  Givrage  Turbulence  Onde Orograph.  Cendres Volcan.







- Altitude de l'aérodrome : 499 ft
- Code IATA : TLS
- Voir les cartes d'approche


LFBO - Toulouse / Blagnac

DERNIER METAR :
  • 211000Z AUTO VRB03KT CAVOK 26/07 Q1021 NOSIG

METARs EXPIRÉS :
  • 210930Z AUTO 09004KT 070V140 CAVOK 25/08 Q1021 NOSIG
  • 210900Z AUTO VRB02KT CAVOK 24/08 Q1022 NOSIG
  • 210830Z AUTO VRB02KT CAVOK 22/09 Q1022 NOSIG
  • 210800Z AUTO VRB02KT CAVOK 21/09 Q1022 NOSIG
  • 210730Z AUTO VRB02KT CAVOK 19/09 Q1022 NOSIG

TAF TAF LFBO
Valide du 21 à 06h jusqu'au 22 à 12h UTC


210500Z 2106/2212 VRB02KT CAVOK
BECMG 2205/2208 14012KT
TEMPO 2209/2212 14015G25KT
ATIS : +33 5 62 74 66 36
Pas de NOTAMs connus pour ce terrain.



MET'MAP, la Météo Aéronautique d'un coup d'oeil ! - Copyright ORBIFLY Décembre 2007 - Disclaimer

ORBIFLY MET'MAP TEAM :

Programmation & Développement : Alexandra Zaïnal
Conception & Développement : Baudouin d'Aumeries
Co-Programmation & Développement : Marc-Olivier Méhu
Soutien technique & logistique : Manuel Goepfert

Contact : metmap@orbifly.com




SOURCES & CREDITS :

   NOAA